Time;durP1;ratioP1;P1;durP2;ratioP2;P2;SDS_P1;SDS_P2;PMS_P1;PMS_P2;Temp;Humidity;BMP_temperature;BMP_pressure;BME280_temperature;BME280_humidity;BME280_pressure;Samples;Min_cycle;Max_cycle;Signal;HPM_P1;HPM_P2
2022/05/27 00:01:48;;;;;;;28.10;5.10;;;;;;;;;;4915845;29;20115;-86
2022/05/27 00:04:51;;;;;;;19.83;4.28;;;;;;;;;;4931565;29;20049;-86
2022/05/27 00:07:51;;;;;;;32.00;4.78;;;;;;;;;;4929873;29;20081;-86
2022/05/27 00:10:24;;;;;;;20.25;4.45;;;;;;;;;;4940486;29;20142;-85
2022/05/27 00:13:09;;;;;;;22.75;4.20;;;;;;;;;;4902068;29;20128;-85
2022/05/27 00:15:38;;;;;;;23.27;4.25;;;;;;;;;;4934575;29;20039;-87
2022/05/27 00:18:05;;;;;;;13.73;3.55;;;;;;;;;;4928542;29;20670;-85
2022/05/27 00:20:31;;;;;;;21.08;4.40;;;;;;;;;;4916826;29;21013;-85
2022/05/27 00:22:57;;;;;;;20.63;3.53;;;;;;;;;;4928654;29;20032;-85
2022/05/27 00:25:33;;;;;;;16.30;4.40;;;;;;;;;;4933832;29;20138;-85
2022/05/27 00:28:05;;;;;;;15.50;3.65;;;;;;;;;;4931007;29;20075;-85
2022/05/27 00:30:32;;;;;;;20.10;3.42;;;;;;;;;;4915937;29;20048;-85
2022/05/27 00:33:01;;;;;;;17.40;3.08;;;;;;;;;;4934476;29;20032;-85
2022/05/27 00:35:42;;;;;;;17.27;3.80;;;;;;;;;;4931937;29;20142;-87
2022/05/27 00:38:18;;;;;;;15.93;2.75;;;;;;;;;;4911729;29;20552;-85
2022/05/27 00:40:46;;;;;;;17.05;3.03;;;;;;;;;;4943075;23;20058;-84
2022/05/27 00:43:36;;;;;;;15.85;3.53;;;;;;;;;;4910523;29;20052;-85
2022/05/27 00:46:18;;;;;;;17.20;3.10;;;;;;;;;;4898700;29;20061;-86
2022/05/27 00:48:58;;;;;;;25.10;3.58;;;;;;;;;;4915617;29;20056;-85
2022/05/27 00:51:41;;;;;;;17.58;3.20;;;;;;;;;;4918551;29;20084;-85
2022/05/27 00:54:26;;;;;;;20.00;4.75;;;;;;;;;;4925516;29;20125;-86
2022/05/27 00:57:01;;;;;;;19.13;3.25;;;;;;;;;;4920813;29;20048;-86
2022/05/27 00:59:46;;;;;;;16.10;3.15;;;;;;;;;;4913274;29;20516;-85
2022/05/27 01:02:25;;;;;;;24.48;3.42;;;;;;;;;;4914024;29;20108;-85
2022/05/27 01:05:07;;;;;;;18.92;3.60;;;;;;;;;;4917448;29;20056;-86
2022/05/27 01:07:34;;;;;;;11.95;2.42;;;;;;;;;;4916247;29;20048;-85
2022/05/27 01:10:01;;;;;;;14.55;2.90;;;;;;;;;;4897712;29;20130;-84
2022/05/27 01:16:04;;;;;;;16.35;2.88;;;;;;;;;;4899521;29;20040;-85
2022/05/27 01:22:08;;;;;;;18.25;2.90;;;;;;;;;;4916201;29;20040;-84
2022/05/27 01:28:40;;;;;;;17.40;2.80;;;;;;;;;;4911497;29;20047;-86
2022/05/27 01:31:21;;;;;;;15.35;2.35;;;;;;;;;;4899621;29;20040;-85
2022/05/27 01:33:47;;;;;;;17.65;2.92;;;;;;;;;;4915479;29;20100;-85
2022/05/27 01:39:48;;;;;;;20.55;3.17;;;12.50;99.90;;;;;;4913666;29;20052;-85
2022/05/27 01:45:58;;;;;;;11.10;2.55;;;;;;;;;;4917822;29;20060;-83
2022/05/27 01:51:52;;;;;;;15.18;3.17;;;12.60;99.90;;;;;;4930381;23;20039;-84
2022/05/27 01:54:33;;;;;;;13.27;2.97;;;;;;;;;;4926509;29;20056;-83
2022/05/27 01:57:21;;;;;;;15.60;2.75;;;;;;;;;;4914668;29;20082;-85
2022/05/27 02:03:07;;;;;;;14.43;2.20;;;;;;;;;;4897271;29;20136;-85
2022/05/27 02:05:33;;;;;;;15.32;3.15;;;;;;;;;;4915653;29;20131;-84
2022/05/27 02:08:01;;;;;;;13.80;2.70;;;;;;;;;;4898439;29;20044;-82
2022/05/27 02:10:37;;;;;;;14.68;2.85;;;;;;;;;;4912405;29;20036;-82
2022/05/27 02:13:23;;;;;;;18.23;2.45;;;;;;;;;;4893066;29;20051;-85
2022/05/27 02:15:56;;;;;;;16.95;3.78;;;;;;;;;;4890585;29;20087;-84
2022/05/27 02:18:25;;;;;;;11.32;2.53;;;;;;;;;;4910611;29;20048;-84
2022/05/27 02:21:05;;;;;;;;;;;;;;;;;;;;;
2022/05/27 02:23:44;;;;;;;18.42;3.30;;;;;;;;;;4909963;29;20485;-85
2022/05/27 02:26:15;;;;;;;20.00;3.08;;;;;;;;;;4893663;29;20055;-85
2022/05/27 02:28:44;;;;;;;15.20;3.38;;;;;;;;;;4911633;29;20048;-84
2022/05/27 02:31:49;;;;;;;20.83;3.40;;;;;;;;;;4895011;29;20084;-84
2022/05/27 02:37:15;;;;;;;15.68;4.20;;;;;;;;;;4906565;29;20489;-84
2022/05/27 02:39:41;;;;;;;22.08;3.92;;;;;;;;;;4912124;29;20043;-83
2022/05/27 02:42:16;;;;;;;11.73;2.25;;;;;;;;;;4914566;29;20044;-83
2022/05/27 02:45:01;;;;;;;18.23;3.85;;;;;;;;;;4896968;29;20104;-84
2022/05/27 02:47:40;;;;;;;15.85;2.90;;;;;;;;;;4913061;29;20412;-84
2022/05/27 02:50:06;;;;;;;16.83;2.95;;;;;;;;;;4910193;29;20165;-84
2022/05/27 02:52:38;;;;;;;13.85;3.10;;;;;;;;;;4911978;29;20048;-85
2022/05/27 02:55:11;;;;;;;14.27;2.80;;;;;;;;;;4893924;29;20052;-83
2022/05/27 02:57:50;;;;;;;13.90;2.80;;;;;;;;;;4899025;29;20051;-84
2022/05/27 03:00:27;;;;;;;13.45;3.13;;;;;;;;;;4909257;29;20060;-85
2022/05/27 03:02:59;;;;;;;14.48;2.60;;;;;;;;;;4914063;29;20134;-87
2022/05/27 03:05:32;;;;;;;17.17;2.50;;;;;;;;;;4904272;29;20092;-85
2022/05/27 03:08:14;;;;;;;21.03;2.80;;;;;;;;;;4901514;29;20052;-86
2022/05/27 03:10:47;;;;;;;12.40;2.70;;;;;;;;;;4898792;29;20054;-87
2022/05/27 03:13:16;;;;;;;17.95;3.03;;;;;;;;;;4915102;29;20044;-87
2022/05/27 03:16:01;;;;;;;10.38;2.35;;;;;;;;;;4898685;29;20055;-85
2022/05/27 03:18:52;;;;;;;14.63;2.60;;;;;;;;;;4900180;29;20118;-85
2022/05/27 03:24:38;;;;;;;9.75;2.35;;;;;;;;;;4912894;29;20040;-86
2022/05/27 03:27:30;;;;;;;14.77;2.70;;;;;;;;;;4918709;29;20075;-86
2022/05/27 03:30:17;;;;;;;15.38;2.75;;;;;;;;;;4908947;29;20064;-85
2022/05/27 03:32:55;;;;;;;19.98;3.08;;;;;;;;;;4910565;29;20048;-85
2022/05/27 03:35:36;;;;;;;14.93;2.92;;;;;;;;;;4904153;29;20044;-84
2022/05/27 03:38:25;;;;;;;10.50;2.63;;;;;;;;;;4896426;29;20036;-84
2022/05/27 03:41:06;;;;;;;11.20;2.85;;;;;;;;;;4908956;29;20041;-85
2022/05/27 03:43:34;;;;;;;14.45;2.78;;;;;;;;;;4912958;29;20403;-85
2022/05/27 03:46:00;;;;;;;11.27;2.17;;;;;;;;;;4897461;29;20094;-84
2022/05/27 03:48:28;;;;;;;14.75;3.45;;;;;;;;;;4897357;29;20496;-85
2022/05/27 03:50:58;;;;;;;15.60;3.35;;;;;;;;;;4908281;29;20114;-84
2022/05/27 03:54:06;;;;;;;12.52;2.33;;;;;;;;;;4912602;29;20289;-86
2022/05/27 03:56:41;;;;;;;13.50;2.60;;;;;;;;;;4915355;29;20474;-86
2022/05/27 03:59:12;;;;;;;14.57;2.55;;;;;;;;;;4912876;29;20158;-85
2022/05/27 04:01:39;;;;;;;10.48;2.08;;;;;;;;;;4918895;29;20040;-83
2022/05/27 04:04:06;;;;;;;14.77;2.88;;;;;;;;;;4897768;29;20127;-85
2022/05/27 04:06:47;;;;;;;18.73;2.70;;;;;;;;;;4878359;29;20473;-85
2022/05/27 04:09:20;;;;;;;11.43;2.58;;;;;;;;;;4894151;29;20536;-86
2022/05/27 04:11:47;;;;;;;10.90;2.35;;;;;;;;;;4897219;29;20408;-84
2022/05/27 04:14:13;;;;;;;15.73;2.92;;;;;;;;;;4900398;29;20415;-86
2022/05/27 04:16:42;;;;;;;15.65;2.58;;;;;;;;;;4899772;29;20111;-86
2022/05/27 04:19:09;;;;;;;12.05;2.38;;;;;;;;;;4899205;29;20047;-82
2022/05/27 04:21:35;;;;;;;13.60;2.88;;;;;;;;;;4933165;23;20096;-83
2022/05/27 04:24:38;;;;;;;12.77;3.40;;;11.50;99.90;;;;;;4941491;29;20443;-84
2022/05/27 04:27:15;;;;;;;12.00;3.03;;;;;;;;;;4936869;29;20126;-86
2022/05/27 04:29:53;;;;;;;17.27;3.13;;;;;;;;;;4950627;29;20503;-83
2022/05/27 04:32:32;;;;;;;12.13;2.90;;;;;;;;;;4935537;29;20071;-81
2022/05/27 04:34:58;;;;;;;13.20;3.08;;;;;;;;;;4929720;29;20182;-81
2022/05/27 04:37:26;;;;;;;13.02;2.30;;;;;;;;;;4948200;29;20103;-85
2022/05/27 04:39:52;;;;;;;22.70;2.75;;;;;;;;;;4940149;29;20036;-84
2022/05/27 04:42:19;;;;;;;13.93;3.00;;;;;;;;;;4934281;29;20075;-84
2022/05/27 04:44:57;;;;;;;16.08;2.72;;;;;;;;;;4936092;29;20047;-84
2022/05/27 04:47:39;;;;;;;18.92;3.40;;;;;;;;;;4915908;29;20056;-84
2022/05/27 04:50:08;;;;;;;19.17;3.20;;;;;;;;;;4932030;29;20039;-82
2022/05/27 04:52:50;;;;;;;9.00;2.65;;;;;;;;;;4917370;29;20055;-83
2022/05/27 04:55:44;;;;;;;15.82;3.08;;;;;;;;;;4934935;29;20062;-83
2022/05/27 04:58:11;;;;;;;17.02;2.90;;;;;;;;;;4939680;29;20043;-84
2022/05/27 05:00:58;;;;;;;10.38;3.00;;;;;;;;;;4927345;29;20051;-85
2022/05/27 05:03:24;;;;;;;15.98;3.00;;;;;;;;;;4932270;29;20051;-85
2022/05/27 05:05:53;;;;;;;12.45;3.00;;;;;;;;;;4926613;29;20041;-84
2022/05/27 05:08:33;;;;;;;18.10;3.38;;;;;;;;;;4927902;29;20043;-83
2022/05/27 05:11:01;;;;;;;20.45;3.05;;;;;;;;;;4926769;29;20522;-83
2022/05/27 05:13:28;;;;;;;14.23;2.72;;;;;;;;;;4924589;29;20036;-84
2022/05/27 05:15:54;;;;;;;24.40;4.30;;;;;;;;;;4917451;29;20127;-84
2022/05/27 05:18:33;;;;;;;16.40;3.45;;;;;;;;;;4945163;28;20051;-84
2022/05/27 05:21:00;;;;;;;18.15;3.38;;;;;;;;;;4933931;29;20407;-84
2022/05/27 05:23:28;;;;;;;21.58;4.15;;;;;;;;;;4930343;29;20112;-83
2022/05/27 05:25:54;;;;;;;19.88;3.13;;;;;;;;;;4940638;28;20035;-81
2022/05/27 05:28:30;;;;;;;19.50;3.83;;;;;;;;;;4912449;29;20064;-83
2022/05/27 05:30:56;;;;;;;20.17;4.03;;;;;;;;;;4932934;28;20496;-82
2022/05/27 05:33:22;;;;;;;12.48;2.75;;;;;;;;;;4912525;29;20046;-82
2022/05/27 05:35:49;;;;;;;24.13;3.92;;;;;;;;;;4935050;29;20593;-85
2022/05/27 05:38:15;;;;;;;24.90;3.85;;;;;;;;;;4900723;29;20511;-84
2022/05/27 05:40:41;;;;;;;25.80;4.03;;;;;;;;;;4910071;29;20053;-84
2022/05/27 05:43:23;;;;;;;16.95;3.65;;;;;;;;;;4917698;29;20036;-83
2022/05/27 05:45:50;;;;;;;19.00;3.63;;;;;;;;;;4938712;28;20035;-83
2022/05/27 05:48:16;;;;;;;24.50;4.43;;;;;;;;;;4922286;29;20052;-84
2022/05/27 05:50:48;;;;;;;24.80;4.00;;;;;;;;;;4915907;29;20047;-85
2022/05/27 05:53:14;;;;;;;22.27;3.45;;;;;;;;;;4937060;29;20079;-82
2022/05/27 05:55:49;;;;;;;26.67;3.70;;;;;;;;;;4936954;29;20045;-83
2022/05/27 05:58:15;;;;;;;19.42;4.22;;;;;;;;;;4925285;29;20526;-84
2022/05/27 06:00:42;;;;;;;16.80;3.45;;;;;;;;;;4908380;29;20040;-83
2022/05/27 06:03:08;;;;;;;19.35;3.42;;;;;;;;;;4936320;28;20122;-84
2022/05/27 06:05:53;;;;;;;24.95;3.80;;;;;;;;;;4933944;29;20032;-84
2022/05/27 06:08:19;;;;;;;17.27;3.58;;;;;;;;;;4922635;29;20376;-85
2022/05/27 06:10:46;;;;;;;17.85;3.72;;;;;;;;;;4930175;29;20036;-83
2022/05/27 06:13:12;;;;;;;23.88;3.58;;;;;;;;;;4947619;29;20036;-83
2022/05/27 06:15:38;;;;;;;22.38;3.63;;;;;;;;;;4931141;29;20047;-85
2022/05/27 06:25:20;;;;;;;15.68;3.38;;;;;;;;;;4930628;23;20075;-86
2022/05/27 06:27:46;;;;;;;17.60;4.13;;;;;;;;;;4941883;29;20047;-86
2022/05/27 06:36:02;;;;;;;21.98;4.25;;;;;;;;;;4963052;29;20047;-84
2022/05/27 06:38:29;;;;;;;19.25;3.70;;;;;;;;;;4949844;29;20466;-84
2022/05/27 06:44:10;;;;;;;13.02;2.78;;;;;;;;;;4964670;29;20059;-84
2022/05/27 06:46:37;;;;;;;19.90;3.55;;;;;;;;;;4956088;29;20103;-85
2022/05/27 06:49:05;;;;;;;12.55;2.53;;;;;;;;;;4952914;29;20458;-85
2022/05/27 06:51:31;;;;;;;22.40;3.90;;;;;;;;;;4945030;29;20031;-88
2022/05/27 06:57:06;;;;;;;14.65;3.67;;;;;;;;;;4949383;28;20071;-89
2022/05/27 06:59:32;;;;;;;13.85;3.22;;;;;;;;;;4968124;28;20075;-85
2022/05/27 07:02:07;;;;;;;17.23;3.53;;;;;;;;;;4925615;29;20054;-84
2022/05/27 07:04:43;;;;;;;14.40;2.85;;;;;;;;;;4957915;29;20055;-89
2022/05/27 07:07:11;;;;;;;18.88;3.30;;;;;;;;;;4956814;28;20054;-82
2022/05/27 07:09:43;;;;;;;18.90;4.13;;;;;;;;;;4910006;28;20139;-87
2022/05/27 07:12:28;;;;;;;19.00;3.28;;;;;;;;;;4961290;28;20086;-85
2022/05/27 07:14:55;;;;;;;11.40;3.08;;;;;;;;;;4970987;28;20445;-84
2022/05/27 07:17:39;;;;;;;20.48;4.00;;;;;;;;;;4954811;28;20110;-88
2022/05/27 07:20:25;;;;;;;16.38;3.15;;;13.90;99.90;;;;;;4948221;28;20047;-86
2022/05/27 07:22:51;;;;;;;14.30;3.00;;;;;;;;;;4949002;29;20554;-87
2022/05/27 07:25:17;;;;;;;15.02;3.22;;;;;;;;;;4934303;29;20044;-87
2022/05/27 07:27:49;;;;;;;18.00;3.30;;;;;;;;;;4954533;28;20047;-87
2022/05/27 07:30:48;;;;;;;16.70;2.92;;;;;;;;;;4940644;29;20051;-91
2022/05/27 07:33:14;;;;;;;16.45;3.38;;;;;;;;;;4917600;29;20047;-86
2022/05/27 07:35:40;;;;;;;16.17;3.38;;;;;;;;;;4941580;29;20119;-88
2022/05/27 07:38:10;;;;;;;22.38;3.47;;;;;;;;;;4941734;29;20054;-83
2022/05/27 07:40:37;;;;;;;17.63;3.30;;;;;;;;;;4937275;29;20043;-86
2022/05/27 07:43:03;;;;;;;17.48;3.85;;;;;;;;;;4936274;29;20035;-86
2022/05/27 07:45:29;;;;;;;23.35;4.00;;;;;;;;;;4940525;28;20043;-89
2022/05/27 07:47:57;;;;;;;14.73;3.78;;;;;;;;;;4931535;29;20175;-84
2022/05/27 07:50:24;;;;;;;15.63;3.38;;;;;;;;;;4949212;28;20377;-86
2022/05/27 07:52:50;;;;;;;13.93;3.42;;;;;;;;;;4944314;29;20047;-85
2022/05/27 07:55:35;;;;;;;15.85;3.13;;;;;;;;;;4952127;29;20047;-86
2022/05/27 07:58:17;;;;;;;21.85;3.50;;;;;;;;;;4930675;29;20047;-86
2022/05/27 08:00:58;;;;;;;25.63;4.13;;;;;;;;;;4918907;29;20057;-84
2022/05/27 08:03:58;;;;;;;20.88;3.85;;;;;;;;;;4929353;29;20054;-84
2022/05/27 08:07:02;;;;;;;16.42;3.33;;;;;;;;;;4956467;28;20047;-85
2022/05/27 08:09:32;;;;;;;17.40;4.00;;;;;;;;;;4944485;29;20149;-85
2022/05/27 08:11:58;;;;;;;18.83;3.88;;;;;;;;;;4932456;29;20059;-84
2022/05/27 08:14:24;;;;;;;16.80;3.88;;;;;;;;;;4919549;29;20407;-85
2022/05/27 08:16:53;;;;;;;24.02;3.75;;;;;;;;;;4920110;29;20168;-81
2022/05/27 08:19:22;;;;;;;20.63;3.75;;;;;;;;;;4937241;29;20039;-84
2022/05/27 08:21:48;;;;;;;20.20;4.15;;;;;;;;;;4951125;29;20527;-84
2022/05/27 08:24:24;;;;;;;20.35;4.13;;;;;;;;;;4952717;28;20467;-82
2022/05/27 08:26:54;;;;;;;18.40;4.03;;;;;;;;;;4950156;29;20070;-87
2022/05/27 08:29:29;;;;;;;17.88;3.15;;;;;;;;;;4922540;29;20158;-83
2022/05/27 08:41:34;;;;;;;22.30;4.07;;;;;;;;;;4912653;29;20099;-84
2022/05/27 08:44:53;;;;;;;;;;;;;;;;;;;;;
2022/05/27 08:47:24;;;;;;;16.15;3.05;;;;;;;;;;4875820;29;20964;-83
2022/05/27 09:03:13;;;;;;;;;;;14.90;99.90;;;;;;4959935;28;20060;-87
2022/05/27 09:05:55;;;;;;;15.75;3.55;;;;;;;;;;4909393;29;19946;-88
2022/05/27 09:29:24;;;;;;;22.98;4.25;;;;;;;;;;4918519;29;20067;-88
2022/05/27 09:32:13;;;;;;;;;;;;;;;;;;;;;
2022/05/27 10:05:28;;;;;;;10.13;2.60;;;;;;;;;;4971110;28;19977;-88
2022/05/27 10:07:57;;;;;;;19.48;4.18;;;;;;;;;;4986390;28;20105;-87
2022/05/27 10:14:17;;;;;;;27.25;3.80;;;;;;;;;;4974931;28;20049;-86
2022/05/27 10:40:40;;;;;;;20.77;3.40;;;;;;;;;;4936589;29;20084;-89
2022/05/27 10:47:04;;;;;;;15.10;3.55;;;;;;;;;;4933640;29;20041;-89
2022/05/27 11:25:19;;;;;;;21.67;3.70;;;;;;;;;;4970567;28;19976;-90
2022/05/27 11:27:45;;;;;;;;;;;;;;;;;;4972913;28;20057;-85
2022/05/27 11:34:27;;;;;;;21.90;3.05;;;;;;;;;;4978786;28;20067;-92
2022/05/27 12:23:13;;;;;;;9.38;2.47;;;;;;;;;;4984377;23;20065;-89
2022/05/27 12:25:49;;;;;;;18.27;2.95;;;;;;;;;;4912314;28;20057;-90
2022/05/27 13:03:54;;;;;;;;;;;;;;;;;;;;;
2022/05/27 13:07:07;;;;;;;21.20;3.92;;;;;;;;;;5120382;23;20130;-89
2022/05/27 13:20:05;;;;;;;19.35;3.53;;;;;;;;;;4932282;29;20107;-90
2022/05/27 13:48:32;;;;;;;;;;;;;;;;;;;;;
2022/05/27 13:51:50;;;;;;;15.20;3.50;;;18.00;99.90;;;;;;4860207;29;20066;-90
2022/05/27 13:58:10;;;;;;;15.55;3.45;;;;;;;;;;4939686;23;20040;-87
2022/05/27 14:00:42;;;;;;;21.20;4.20;;;;;;;;;;4933553;29;20061;-87
2022/05/27 14:03:09;;;;;;;20.20;4.65;;;;;;;;;;4926312;23;20504;-88
2022/05/27 14:08:45;;;;;;;19.50;3.85;;;;;;;;;;4921263;29;20044;-88
2022/05/27 14:11:24;;;;;;;14.63;3.22;;;;;;;;;;4930677;29;20087;-90
2022/05/27 14:13:52;;;;;;;19.30;4.85;;;;;;;;;;4925959;29;20070;-89
2022/05/27 14:32:10;;;;;;;18.33;3.70;;;;;;;;;;4917800;29;20142;-89
2022/05/27 14:35:34;;;;;;;16.00;3.38;;;17.60;99.90;;;;;;4963889;23;20154;-89
2022/05/27 14:44:51;;;;;;;14.82;2.83;;;;;;;;;;4987577;23;20050;-88
2022/05/27 14:58:00;;;;;;;14.07;3.08;;;;;;;;;;4989461;28;20106;-87
2022/05/27 15:01:11;;;;;;;17.88;3.90;;;;;;;;;;4960565;28;20047;-86
2022/05/27 15:10:57;;;;;;;;;;;;;;;;;;;;;
2022/05/27 15:14:12;;;;;;;18.05;3.22;;;;;;;;;;4902621;29;20612;-86
2022/05/27 15:53:46;;;;;;;16.30;3.28;;;;;;;;;;4904928;29;20059;-90
2022/05/27 15:56:19;;;;;;;15.80;3.55;;;;;;;;;;4864848;29;20057;-88
2022/05/27 15:59:13;;;;;;;19.38;3.80;;;;;;;;;;4860423;29;20064;-88
2022/05/27 16:11:15;;;;;;;17.42;3.75;;;;;;;;;;4904584;29;20052;-88
2022/05/27 16:13:41;;;;;;;20.83;4.38;;;;;;;;;;4903116;29;20052;-88
2022/05/27 16:18:52;;;;;;;21.30;3.70;;;;;;;;;;4888677;29;20488;-87
2022/05/27 16:21:28;;;;;;;21.52;3.25;;;;;;;;;;4869193;29;20127;-88
2022/05/27 16:24:00;;;;;;;23.42;3.83;;;;;;;;;;4870605;29;20058;-87
2022/05/27 16:26:27;;;;;;;16.92;3.53;;;;;;;;;;4904267;29;20196;-86
2022/05/27 16:28:53;;;;;;;20.20;3.28;;;;;;;;;;4905644;29;20043;-85
2022/05/27 16:31:19;;;;;;;14.70;3.28;;;;;;;;;;4903634;29;20836;-87
2022/05/27 16:34:05;;;;;;;19.63;3.65;;;;;;;;;;4906841;29;20657;-86
2022/05/27 16:43:13;;;;;;;15.35;3.08;;;;;;;;;;4903774;29;20040;-88
2022/05/27 16:49:08;;;;;;;18.63;2.60;;;;;;;;;;4877606;29;20045;-88
2022/05/27 16:51:35;;;;;;;11.50;2.47;;;;;;;;;;4869226;29;20112;-87
2022/05/27 16:54:02;;;;;;;18.90;3.53;;;;;;;;;;4871451;29;20036;-87
2022/05/27 16:56:29;;;;;;;15.30;3.00;;;;;;;;;;4872902;29;20044;-87
2022/05/27 16:58:55;;;;;;;19.38;3.28;;;;;;;;;;4900614;23;20052;-88
2022/05/27 17:01:21;;;;;;;20.00;2.92;;;;;;;;;;4939394;29;20055;-87
2022/05/27 17:03:47;;;;;;;14.75;2.80;;;;;;;;;;4924271;29;20086;-87
2022/05/27 17:06:17;;;;;;;15.63;3.63;;;;;;;;;;4923740;29;20051;-87
2022/05/27 17:08:49;;;;;;;15.15;2.70;;;;;;;;;;4924410;29;20048;-87
2022/05/27 17:11:16;;;;;;;12.38;2.70;;;;;;;;;;4923451;29;20059;-87
2022/05/27 17:13:54;;;;;;;17.38;2.70;;;;;;;;;;4951069;23;20064;-88
2022/05/27 17:16:20;;;;;;;18.05;3.17;;;;;;;;;;4908683;29;20512;-87
2022/05/27 17:18:49;;;;;;;16.17;3.38;;;;;;;;;;4908653;29;20138;-87
2022/05/27 17:30:12;;;;;;;19.00;2.92;;;;;;;;;;4924417;23;20067;-87
2022/05/27 17:32:41;;;;;;;13.10;2.80;;;;;;;;;;4900847;29;20095;-87
2022/05/27 17:37:56;;;;;;;19.15;3.65;;;;;;;;;;4902707;29;20044;-86
2022/05/27 17:40:24;;;;;;;17.90;3.20;;;;;;;;;;4904380;29;20048;-87
2022/05/27 17:43:08;;;;;;;17.55;3.40;;;;;;;;;;4919792;29;20044;-88
2022/05/27 17:45:35;;;;;;;19.17;2.95;;;;;;;;;;4935992;23;20567;-87
2022/05/27 17:51:20;;;;;;;12.00;2.63;;;;;;;;;;4898005;29;20044;-86
2022/05/27 17:54:00;;;;;;;12.88;2.83;;;;;;;;;;4918241;29;20127;-88
2022/05/27 17:56:30;;;;;;;12.57;2.80;;;;;;;;;;4917809;29;20052;-85
2022/05/27 17:59:33;;;;;;;15.98;3.42;;;;;;;;;;4902115;29;20111;-86
2022/05/27 18:02:24;;;;;;;21.00;3.45;;;;;;;;;;4907698;29;20099;-85
2022/05/27 18:04:58;;;;;;;13.05;3.25;;;;;;;;;;4922327;29;20052;-87
2022/05/27 18:14:15;;;;;;;14.48;2.35;;;;;;;;;;4948404;28;20449;-89
2022/05/27 18:17:06;;;;;;;15.77;3.47;;;;;;;;;;4944887;29;20051;-89
2022/05/27 18:23:22;;;;;;;22.75;3.33;;;;;;;;;;4959670;23;20063;-87
2022/05/27 18:29:21;;;;;;;12.98;2.67;;;;;;;;;;4928723;29;20106;-88
2022/05/27 18:32:21;;;;;;;21.52;3.45;;;;;;;;;;4946701;29;20139;-88
2022/05/27 18:41:23;;;;;;;12.13;2.45;;;;;;;;;;5116860;23;20079;-87
2022/05/27 18:43:53;;;;;;;13.95;2.75;;;;;;;;;;4928236;29;20051;-85
2022/05/27 18:49:32;;;;;;;18.02;3.22;;;;;;;;;;4926543;29;19930;-88
2022/05/27 18:58:58;;;;;;;14.82;2.58;;;;;;;;;;4963137;28;20050;-88
2022/05/27 19:01:43;;;;;;;14.02;2.53;;;;;;;;;;4929575;28;20047;-88
2022/05/27 19:10:56;;;;;;;14.63;2.80;;;;;;;;;;4958108;28;20081;-88
2022/05/27 19:16:17;;;;;;;13.85;2.20;;;;;;;;;;4960511;28;20057;-86
2022/05/27 19:22:56;;;;;;;22.52;2.90;;;;;;;;;;4964262;28;20058;-87
2022/05/27 19:33:32;;;;;;;17.48;3.17;;;;;;;;;;5254266;23;20072;-87
2022/05/27 19:35:58;;;;;;;20.90;4.10;;;;;;;;;;4886529;29;20368;-88
2022/05/27 19:51:19;;;;;;;23.23;3.88;;;13.00;99.90;;;;;;5116998;23;20588;-87
2022/05/27 20:22:17;;;;;;;15.48;3.10;;;;;;;;;;5026730;23;20055;-88
2022/05/27 20:24:44;;;;;;;16.23;2.95;;;;;;;;;;4946765;29;20050;-86
2022/05/27 20:27:20;;;;;;;15.57;2.58;;;;;;;;;;4926804;29;20039;-87
2022/05/27 20:29:50;;;;;;;15.90;1.92;;;;;;;;;;4942994;29;20097;-88
2022/05/27 20:32:18;;;;;;;13.10;2.08;;;;;;;;;;4945744;23;20055;-85
2022/05/27 20:34:44;;;;;;;15.68;2.05;;;;;;;;;;4946229;23;20074;-87
2022/05/27 20:37:11;;;;;;;13.27;2.65;;;;;;;;;;4904572;29;20047;-87
2022/05/27 20:39:50;;;;;;;12.85;1.85;;;;;;;;;;4907811;29;20060;-88
2022/05/27 20:48:28;;;;;;;11.63;1.85;;;;;;;;;;4907512;29;20528;-87
2022/05/27 20:50:58;;;;;;;19.85;2.42;;;;;;;;;;4901160;23;20051;-88
2022/05/27 20:56:22;;;;;;;15.23;2.75;;;;;;;;;;5068081;23;20055;-86
2022/05/27 20:58:52;;;;;;;12.60;2.30;;;;;;;;;;4950168;28;20042;-86
2022/05/27 21:01:18;;;;;;;17.90;2.40;;;;;;;;;;4963275;28;20126;-87
2022/05/27 21:03:45;;;;;;;12.82;2.42;;;;;;;;;;4981390;28;20034;-85
2022/05/27 21:06:39;;;;;;;21.77;2.53;;;;;;;;;;4931356;28;20050;-88
2022/05/27 21:09:08;;;;;;;12.52;2.38;;;;;;;;;;4976609;28;20046;-87
2022/05/27 21:11:37;;;;;;;11.13;2.17;;;;;;;;;;4936343;29;20044;-88
2022/05/27 21:14:22;;;;;;;8.90;1.45;;;;;;;;;;4948790;28;20083;-87
2022/05/27 21:25:50;;;;;;;8.43;1.50;;;;;;;;;;4887132;29;20059;-89
2022/05/27 21:28:16;;;;;;;10.85;1.95;;;;;;;;;;4878425;29;20140;-89
2022/05/27 21:33:49;;;;;;;11.82;1.80;;;;;;;;;;4879894;29;20679;-88
2022/05/27 21:36:15;;;;;;;10.95;2.20;;;;;;;;;;4870867;29;20502;-88
2022/05/27 21:39:06;;;;;;;9.18;1.90;;;;;;;;;;4863668;29;20064;-88
2022/05/27 21:41:38;;;;;;;11.05;2.10;;;;;;;;;;4870173;29;20072;-87
2022/05/27 21:44:20;;;;;;;13.98;2.30;;;;;;;;;;4877864;29;20045;-87
2022/05/27 21:46:47;;;;;;;13.98;2.30;;;;;;;;;;4860964;29;20049;-88
2022/05/27 21:49:13;;;;;;;14.38;1.83;;;;;;;;;;4877877;29;20049;-88
2022/05/27 21:51:52;;;;;;;10.70;2.38;;;;;;;;;;4873695;29;20144;-88
2022/05/27 21:54:21;;;;;;;10.32;2.03;;;;;;;;;;4864243;29;20099;-87
2022/05/27 21:56:50;;;;;;;10.00;2.13;;;;;;;;;;4881165;29;20128;-89
2022/05/27 21:59:16;;;;;;;11.45;2.22;;;;;;;;;;4859946;29;20077;-90
2022/05/27 22:01:42;;;;;;;11.15;2.00;;;;;;;;;;4869192;29;20085;-87
2022/05/27 22:04:09;;;;;;;11.20;1.55;;;;;;;;;;4881382;29;20150;-88
2022/05/27 22:06:38;;;;;;;16.38;3.03;;;;;;;;;;4865981;29;20152;-88
2022/05/27 22:15:35;;;;;;;15.18;2.58;;;;;;;;;;4878470;29;20047;-87
2022/05/27 22:18:01;;;;;;;10.63;2.08;;;;;;;;;;4870160;29;20045;-87
2022/05/27 22:20:27;;;;;;;12.98;2.25;;;;;;;;;;4884427;29;20073;-87
2022/05/27 22:22:54;;;;;;;14.30;2.10;;;;;;;;;;4881206;29;20462;-87
2022/05/27 22:25:23;;;;;;;8.90;1.73;;;;;;;;;;4862218;29;20053;-87
2022/05/27 22:28:05;;;;;;;14.68;2.53;;;;;;;;;;4863993;29;20076;-87
2022/05/27 22:30:32;;;;;;;13.80;2.00;;;;;;;;;;4887041;29;20052;-87
2022/05/27 22:32:58;;;;;;;12.43;1.80;;;;;;;;;;4865971;29;20041;-88
2022/05/27 22:35:30;;;;;;;12.98;2.65;;;;;;;;;;4862401;29;20049;-87
2022/05/27 22:38:30;;;;;;;12.02;2.08;;;;;;;;;;4883415;29;20132;-88
2022/05/27 22:44:15;;;;;;;10.23;1.63;;;;;;;;;;4877991;29;20049;-88
2022/05/27 22:47:05;;;;;;;8.05;1.80;;;;;;;;;;4878104;29;20139;-87
2022/05/27 22:53:15;;;;;;;14.88;2.25;;;;;;;;;;4883720;29;20052;-88
2022/05/27 22:55:53;;;;;;;9.13;1.90;;;;;;;;;;4846601;29;20057;-88
2022/05/27 23:01:58;;;;;;;12.77;1.40;;;;;;;;;;4873950;29;20112;-88
2022/05/27 23:04:31;;;;;;;15.88;2.20;;;;;;;;;;4859821;29;20081;-87
2022/05/27 23:06:57;;;;;;;10.00;1.50;;;;;;;;;;4875107;29;20052;-89
2022/05/27 23:09:29;;;;;;;11.40;1.38;;;;;;;;;;4874401;29;20053;-88
2022/05/27 23:24:44;;;;;;;11.23;1.77;;;;;;;;;;5093550;23;20052;-87
2022/05/27 23:27:26;;;;;;;10.80;1.80;;;;;;;;;;4938290;29;20179;-87
2022/05/27 23:30:10;;;;;;;15.07;2.10;;;;;;;;;;4938927;29;20102;-88
2022/05/27 23:32:37;;;;;;;9.98;2.10;;;;;;;;;;4922273;29;20115;-89
2022/05/27 23:35:04;;;;;;;6.38;1.95;;;;;;;;;;4939823;29;20110;-86
